sensor_id;sensor_type;location;lat;lon;timestamp;P1;durP1;ratioP1;P2;durP2;ratioP2
57249;SDS011;43102;52.014;-0.680;2023-10-09T00:00:13;8.30;;;5.10;;
57249;SDS011;43102;52.014;-0.680;2023-10-09T00:01:09;8.30;;;5.10;;
57249;SDS011;43102;52.014;-0.680;2023-10-09T00:02:00;8.30;;;5.10;;
57249;SDS011;43102;52.014;-0.680;2023-10-09T00:03:01;8.30;;;5.10;;
57249;SDS011;43102;52.014;-0.680;2023-10-09T00:04:02;8.30;;;5.10;;
57249;SDS011;43102;52.014;-0.680;2023-10-09T00:05:02;8.30;;;5.10;;
57249;SDS011;43102;52.014;-0.680;2023-10-09T00:06:02;8.30;;;5.10;;
57249;SDS011;43102;52.014;-0.680;2023-10-09T00:07:01;8.30;;;5.10;;
57249;SDS011;43102;52.014;-0.680;2023-10-09T00:08:03;8.30;;;5.10;;
57249;SDS011;43102;52.014;-0.680;2023-10-09T00:09:11;7.80;;;5.50;;
57249;SDS011;43102;52.014;-0.680;2023-10-09T00:10:03;7.80;;;5.50;;
57249;SDS011;43102;52.014;-0.680;2023-10-09T00:11:11;7.80;;;5.50;;
57249;SDS011;43102;52.014;-0.680;2023-10-09T00:12:01;7.80;;;5.50;;
57249;SDS011;43102;52.014;-0.680;2023-10-09T00:13:00;7.80;;;5.50;;
57249;SDS011;43102;52.014;-0.680;2023-10-09T00:14:00;7.80;;;5.50;;
57249;SDS011;43102;52.014;-0.680;2023-10-09T00:15:11;7.80;;;5.50;;
57249;SDS011;43102;52.014;-0.680;2023-10-09T00:16:13;7.80;;;5.50;;
57249;SDS011;43102;52.014;-0.680;2023-10-09T00:17:11;7.80;;;5.50;;
57249;SDS011;43102;52.014;-0.680;2023-10-09T00:18:01;7.80;;;5.50;;
57249;SDS011;43102;52.014;-0.680;2023-10-09T00:19:11;7.80;;;5.50;;
57249;SDS011;43102;52.014;-0.680;2023-10-09T00:20:11;7.80;;;5.50;;
57249;SDS011;43102;52.014;-0.680;2023-10-09T00:21:15;7.80;;;5.50;;
57249;SDS011;43102;52.014;-0.680;2023-10-09T00:22:04;7.80;;;5.50;;
57249;SDS011;43102;52.014;-0.680;2023-10-09T00:23:00;7.80;;;5.50;;
57249;SDS011;43102;52.014;-0.680;2023-10-09T00:24:05;7.80;;;5.50;;
57249;SDS011;43102;52.014;-0.680;2023-10-09T00:25:11;7.80;;;5.50;;
57249;SDS011;43102;52.014;-0.680;2023-10-09T00:26:11;7.80;;;5.50;;
57249;SDS011;43102;52.014;-0.680;2023-10-09T00:27:11;7.80;;;5.50;;
57249;SDS011;43102;52.014;-0.680;2023-10-09T00:28:05;7.80;;;5.50;;
57249;SDS011;43102;52.014;-0.680;2023-10-09T00:29:05;7.80;;;5.50;;
57249;SDS011;43102;52.014;-0.680;2023-10-09T00:30:00;7.80;;;5.50;;
57249;SDS011;43102;52.014;-0.680;2023-10-09T00:31:06;7.80;;;5.50;;
57249;SDS011;43102;52.014;-0.680;2023-10-09T00:32:12;7.80;;;5.50;;
57249;SDS011;43102;52.014;-0.680;2023-10-09T00:33:03;7.80;;;5.50;;
57249;SDS011;43102;52.014;-0.680;2023-10-09T00:34:11;7.80;;;5.50;;
57249;SDS011;43102;52.014;-0.680;2023-10-09T00:35:11;7.80;;;5.50;;
57249;SDS011;43102;52.014;-0.680;2023-10-09T00:36:10;7.80;;;5.50;;
57249;SDS011;43102;52.014;-0.680;2023-10-09T00:37:04;7.80;;;5.50;;
57249;SDS011;43102;52.014;-0.680;2023-10-09T00:38:07;7.80;;;5.50;;
57249;SDS011;43102;52.014;-0.680;2023-10-09T00:39:11;8.30;;;5.30;;
57249;SDS011;43102;52.014;-0.680;2023-10-09T00:40:11;8.30;;;5.30;;
57249;SDS011;43102;52.014;-0.680;2023-10-09T00:41:09;8.30;;;5.30;;
57249;SDS011;43102;52.014;-0.680;2023-10-09T00:42:01;8.30;;;5.30;;
57249;SDS011;43102;52.014;-0.680;2023-10-09T00:43:06;8.30;;;5.30;;
57249;SDS011;43102;52.014;-0.680;2023-10-09T00:44:01;8.30;;;5.30;;
57249;SDS011;43102;52.014;-0.680;2023-10-09T00:45:04;8.30;;;5.30;;
57249;SDS011;43102;52.014;-0.680;2023-10-09T00:46:04;8.30;;;5.30;;
57249;SDS011;43102;52.014;-0.680;2023-10-09T00:47:11;8.30;;;5.30;;
57249;SDS011;43102;52.014;-0.680;2023-10-09T00:48:02;8.30;;;5.30;;
57249;SDS011;43102;52.014;-0.680;2023-10-09T00:49:02;8.30;;;5.30;;
57249;SDS011;43102;52.014;-0.680;2023-10-09T00:50:13;8.30;;;5.30;;
57249;SDS011;43102;52.014;-0.680;2023-10-09T00:51:00;8.30;;;5.30;;
57249;SDS011;43102;52.014;-0.680;2023-10-09T00:52:01;8.30;;;5.30;;
57249;SDS011;43102;52.014;-0.680;2023-10-09T00:53:09;8.30;;;5.30;;
57249;SDS011;43102;52.014;-0.680;2023-10-09T00:54:07;8.30;;;5.30;;
57249;SDS011;43102;52.014;-0.680;2023-10-09T00:55:04;8.30;;;5.30;;
57249;SDS011;43102;52.014;-0.680;2023-10-09T00:56:11;8.30;;;5.30;;
57249;SDS011;43102;52.014;-0.680;2023-10-09T00:57:07;8.30;;;5.30;;
57249;SDS011;43102;52.014;-0.680;2023-10-09T00:58:05;8.30;;;5.30;;
57249;SDS011;43102;52.014;-0.680;2023-10-09T00:59:09;8.30;;;5.30;;
57249;SDS011;43102;52.014;-0.680;2023-10-09T01:00:01;8.30;;;5.30;;
57249;SDS011;43102;52.014;-0.680;2023-10-09T01:01:04;8.30;;;5.30;;
57249;SDS011;43102;52.014;-0.680;2023-10-09T01:02:05;8.30;;;5.30;;
57249;SDS011;43102;52.014;-0.680;2023-10-09T01:03:11;8.30;;;5.30;;
57249;SDS011;43102;52.014;-0.680;2023-10-09T01:04:12;8.30;;;5.30;;
57249;SDS011;43102;52.014;-0.680;2023-10-09T01:05:11;8.30;;;5.30;;
57249;SDS011;43102;52.014;-0.680;2023-10-09T01:06:09;8.30;;;5.30;;
57249;SDS011;43102;52.014;-0.680;2023-10-09T01:07:11;8.30;;;5.30;;
57249;SDS011;43102;52.014;-0.680;2023-10-09T01:08:01;8.30;;;5.30;;
57249;SDS011;43102;52.014;-0.680;2023-10-09T01:09:11;10.50;;;5.70;;
57249;SDS011;43102;52.014;-0.680;2023-10-09T01:10:10;10.50;;;5.70;;
57249;SDS011;43102;52.014;-0.680;2023-10-09T01:11:12;10.50;;;5.70;;
57249;SDS011;43102;52.014;-0.680;2023-10-09T01:12:00;10.50;;;5.70;;
57249;SDS011;43102;52.014;-0.680;2023-10-09T01:13:01;10.50;;;5.70;;
57249;SDS011;43102;52.014;-0.680;2023-10-09T01:14:08;10.50;;;5.70;;
57249;SDS011;43102;52.014;-0.680;2023-10-09T01:15:00;10.50;;;5.70;;
57249;SDS011;43102;52.014;-0.680;2023-10-09T01:16:04;10.50;;;5.70;;
57249;SDS011;43102;52.014;-0.680;2023-10-09T01:17:02;10.50;;;5.70;;
57249;SDS011;43102;52.014;-0.680;2023-10-09T01:18:01;10.50;;;5.70;;
57249;SDS011;43102;52.014;-0.680;2023-10-09T01:19:06;10.50;;;5.70;;
57249;SDS011;43102;52.014;-0.680;2023-10-09T01:20:04;10.50;;;5.70;;
57249;SDS011;43102;52.014;-0.680;2023-10-09T01:21:02;10.50;;;5.70;;
57249;SDS011;43102;52.014;-0.680;2023-10-09T01:22:04;10.50;;;5.70;;
57249;SDS011;43102;52.014;-0.680;2023-10-09T01:23:02;10.50;;;5.70;;
57249;SDS011;43102;52.014;-0.680;2023-10-09T01:24:01;10.50;;;5.70;;
57249;SDS011;43102;52.014;-0.680;2023-10-09T01:25:05;10.50;;;5.70;;
57249;SDS011;43102;52.014;-0.680;2023-10-09T01:26:00;10.50;;;5.70;;
57249;SDS011;43102;52.014;-0.680;2023-10-09T01:27:05;10.50;;;5.70;;
57249;SDS011;43102;52.014;-0.680;2023-10-09T01:28:01;10.50;;;5.70;;
57249;SDS011;43102;52.014;-0.680;2023-10-09T01:29:01;10.50;;;5.70;;
57249;SDS011;43102;52.014;-0.680;2023-10-09T01:30:01;10.50;;;5.70;;
57249;SDS011;43102;52.014;-0.680;2023-10-09T01:31:00;10.50;;;5.70;;
57249;SDS011;43102;52.014;-0.680;2023-10-09T01:32:00;10.50;;;5.70;;
57249;SDS011;43102;52.014;-0.680;2023-10-09T01:33:11;10.50;;;5.70;;
57249;SDS011;43102;52.014;-0.680;2023-10-09T01:34:03;10.50;;;5.70;;
57249;SDS011;43102;52.014;-0.680;2023-10-09T01:35:00;10.50;;;5.70;;
57249;SDS011;43102;52.014;-0.680;2023-10-09T01:36:01;10.50;;;5.70;;
57249;SDS011;43102;52.014;-0.680;2023-10-09T01:37:05;10.50;;;5.70;;
57249;SDS011;43102;52.014;-0.680;2023-10-09T01:38:00;10.50;;;5.70;;
57249;SDS011;43102;52.014;-0.680;2023-10-09T01:39:08;9.40;;;5.50;;
57249;SDS011;43102;52.014;-0.680;2023-10-09T01:40:11;9.40;;;5.50;;
57249;SDS011;43102;52.014;-0.680;2023-10-09T01:41:11;9.40;;;5.50;;
57249;SDS011;43102;52.014;-0.680;2023-10-09T01:42:01;9.40;;;5.50;;
57249;SDS011;43102;52.014;-0.680;2023-10-09T01:43:03;9.40;;;5.50;;
57249;SDS011;43102;52.014;-0.680;2023-10-09T01:44:10;9.40;;;5.50;;
57249;SDS011;43102;52.014;-0.680;2023-10-09T01:45:12;9.40;;;5.50;;
57249;SDS011;43102;52.014;-0.680;2023-10-09T01:46:05;9.40;;;5.50;;
57249;SDS011;43102;52.014;-0.680;2023-10-09T01:47:07;9.40;;;5.50;;
57249;SDS011;43102;52.014;-0.680;2023-10-09T01:48:08;9.40;;;5.50;;
57249;SDS011;43102;52.014;-0.680;2023-10-09T01:49:08;9.40;;;5.50;;
57249;SDS011;43102;52.014;-0.680;2023-10-09T01:50:04;9.40;;;5.50;;
57249;SDS011;43102;52.014;-0.680;2023-10-09T01:51:04;9.40;;;5.50;;
57249;SDS011;43102;52.014;-0.680;2023-10-09T01:52:08;9.40;;;5.50;;
57249;SDS011;43102;52.014;-0.680;2023-10-09T01:53:02;9.40;;;5.50;;
57249;SDS011;43102;52.014;-0.680;2023-10-09T01:54:00;9.40;;;5.50;;
57249;SDS011;43102;52.014;-0.680;2023-10-09T01:55:11;9.40;;;5.50;;
57249;SDS011;43102;52.014;-0.680;2023-10-09T01:56:14;9.40;;;5.50;;
57249;SDS011;43102;52.014;-0.680;2023-10-09T01:57:06;9.40;;;5.50;;
57249;SDS011;43102;52.014;-0.680;2023-10-09T01:58:11;9.40;;;5.50;;
57249;SDS011;43102;52.014;-0.680;2023-10-09T01:59:05;9.40;;;5.50;;
57249;SDS011;43102;52.014;-0.680;2023-10-09T02:00:03;9.40;;;5.50;;
57249;SDS011;43102;52.014;-0.680;2023-10-09T02:01:02;9.40;;;5.50;;
57249;SDS011;43102;52.014;-0.680;2023-10-09T02:02:10;9.40;;;5.50;;
57249;SDS011;43102;52.014;-0.680;2023-10-09T02:03:05;9.40;;;5.50;;
57249;SDS011;43102;52.014;-0.680;2023-10-09T02:04:08;9.40;;;5.50;;
57249;SDS011;43102;52.014;-0.680;2023-10-09T02:05:16;9.40;;;5.50;;
57249;SDS011;43102;52.014;-0.680;2023-10-09T02:06:03;9.40;;;5.50;;
57249;SDS011;43102;52.014;-0.680;2023-10-09T02:07:06;9.40;;;5.50;;
57249;SDS011;43102;52.014;-0.680;2023-10-09T02:08:03;9.40;;;5.50;;
57249;SDS011;43102;52.014;-0.680;2023-10-09T02:09:01;7.30;;;5.40;;
57249;SDS011;43102;52.014;-0.680;2023-10-09T02:10:00;7.30;;;5.40;;
57249;SDS011;43102;52.014;-0.680;2023-10-09T02:11:02;7.30;;;5.40;;
57249;SDS011;43102;52.014;-0.680;2023-10-09T02:12:01;7.30;;;5.40;;
57249;SDS011;43102;52.014;-0.680;2023-10-09T02:14:01;7.30;;;5.40;;
57249;SDS011;43102;52.014;-0.680;2023-10-09T02:15:06;7.30;;;5.40;;
57249;SDS011;43102;52.014;-0.680;2023-10-09T02:16:11;7.30;;;5.40;;
57249;SDS011;43102;52.014;-0.680;2023-10-09T02:17:09;7.30;;;5.40;;
57249;SDS011;43102;52.014;-0.680;2023-10-09T02:18:13;7.30;;;5.40;;
57249;SDS011;43102;52.014;-0.680;2023-10-09T02:19:06;7.30;;;5.40;;
57249;SDS011;43102;52.014;-0.680;2023-10-09T02:20:11;7.30;;;5.40;;
57249;SDS011;43102;52.014;-0.680;2023-10-09T02:21:04;7.30;;;5.40;;
57249;SDS011;43102;52.014;-0.680;2023-10-09T02:22:12;7.30;;;5.40;;
57249;SDS011;43102;52.014;-0.680;2023-10-09T02:23:00;7.30;;;5.40;;
57249;SDS011;43102;52.014;-0.680;2023-10-09T02:24:07;7.30;;;5.40;;
57249;SDS011;43102;52.014;-0.680;2023-10-09T02:25:05;7.30;;;5.40;;
57249;SDS011;43102;52.014;-0.680;2023-10-09T02:26:02;7.30;;;5.40;;
57249;SDS011;43102;52.014;-0.680;2023-10-09T02:27:08;7.30;;;5.40;;
57249;SDS011;43102;52.014;-0.680;2023-10-09T02:28:00;7.30;;;5.40;;
57249;SDS011;43102;52.014;-0.680;2023-10-09T02:29:09;7.30;;;5.40;;
57249;SDS011;43102;52.014;-0.680;2023-10-09T02:30:10;7.30;;;5.40;;
57249;SDS011;43102;52.014;-0.680;2023-10-09T02:31:11;7.30;;;5.40;;
57249;SDS011;43102;52.014;-0.680;2023-10-09T02:32:11;7.30;;;5.40;;
57249;SDS011;43102;52.014;-0.680;2023-10-09T02:33:06;7.30;;;5.40;;
57249;SDS011;43102;52.014;-0.680;2023-10-09T02:34:06;7.30;;;5.40;;
57249;SDS011;43102;52.014;-0.680;2023-10-09T02:35:10;7.30;;;5.40;;
57249;SDS011;43102;52.014;-0.680;2023-10-09T02:36:05;7.30;;;5.40;;
57249;SDS011;43102;52.014;-0.680;2023-10-09T02:37:05;7.30;;;5.40;;
57249;SDS011;43102;52.014;-0.680;2023-10-09T02:38:04;7.30;;;5.40;;
57249;SDS011;43102;52.014;-0.680;2023-10-09T02:39:00;7.90;;;5.60;;
57249;SDS011;43102;52.014;-0.680;2023-10-09T02:40:08;7.90;;;5.60;;
57249;SDS011;43102;52.014;-0.680;2023-10-09T02:41:11;7.90;;;5.60;;
57249;SDS011;43102;52.014;-0.680;2023-10-09T02:42:06;7.90;;;5.60;;
57249;SDS011;43102;52.014;-0.680;2023-10-09T02:43:00;7.90;;;5.60;;
57249;SDS011;43102;52.014;-0.680;2023-10-09T02:44:10;7.90;;;5.60;;
57249;SDS011;43102;52.014;-0.680;2023-10-09T02:45:03;7.90;;;5.60;;
57249;SDS011;43102;52.014;-0.680;2023-10-09T02:46:12;7.90;;;5.60;;
57249;SDS011;43102;52.014;-0.680;2023-10-09T02:47:05;7.90;;;5.60;;
57249;SDS011;43102;52.014;-0.680;2023-10-09T02:48:08;7.90;;;5.60;;
57249;SDS011;43102;52.014;-0.680;2023-10-09T02:49:09;7.90;;;5.60;;
57249;SDS011;43102;52.014;-0.680;2023-10-09T02:50:06;7.90;;;5.60;;
57249;SDS011;43102;52.014;-0.680;2023-10-09T02:51:02;7.90;;;5.60;;
57249;SDS011;43102;52.014;-0.680;2023-10-09T02:52:06;7.90;;;5.60;;
57249;SDS011;43102;52.014;-0.680;2023-10-09T02:53:08;7.90;;;5.60;;
57249;SDS011;43102;52.014;-0.680;2023-10-09T02:54:12;7.90;;;5.60;;
57249;SDS011;43102;52.014;-0.680;2023-10-09T02:55:11;7.90;;;5.60;;
57249;SDS011;43102;52.014;-0.680;2023-10-09T02:56:11;7.90;;;5.60;;
57249;SDS011;43102;52.014;-0.680;2023-10-09T02:57:08;7.90;;;5.60;;
57249;SDS011;43102;52.014;-0.680;2023-10-09T02:58:06;7.90;;;5.60;;
57249;SDS011;43102;52.014;-0.680;2023-10-09T02:59:05;7.90;;;5.60;;
57249;SDS011;43102;52.014;-0.680;2023-10-09T03:00:00;7.90;;;5.60;;
57249;SDS011;43102;52.014;-0.680;2023-10-09T03:01:00;7.90;;;5.60;;
57249;SDS011;43102;52.014;-0.680;2023-10-09T03:02:00;7.90;;;5.60;;
57249;SDS011;43102;52.014;-0.680;2023-10-09T03:03:04;7.90;;;5.60;;
57249;SDS011;43102;52.014;-0.680;2023-10-09T03:04:02;7.90;;;5.60;;
57249;SDS011;43102;52.014;-0.680;2023-10-09T03:05:03;7.90;;;5.60;;
57249;SDS011;43102;52.014;-0.680;2023-10-09T03:06:01;7.90;;;5.60;;
57249;SDS011;43102;52.014;-0.680;2023-10-09T03:07:01;7.90;;;5.60;;
57249;SDS011;43102;52.014;-0.680;2023-10-09T03:08:02;7.90;;;5.60;;
57249;SDS011;43102;52.014;-0.680;2023-10-09T03:09:09;7.80;;;4.90;;
57249;SDS011;43102;52.014;-0.680;2023-10-09T03:10:01;7.80;;;4.90;;
57249;SDS011;43102;52.014;-0.680;2023-10-09T03:11:00;7.80;;;4.90;;
57249;SDS011;43102;52.014;-0.680;2023-10-09T03:12:03;7.80;;;4.90;;
57249;SDS011;43102;52.014;-0.680;2023-10-09T03:13:03;7.80;;;4.90;;
57249;SDS011;43102;52.014;-0.680;2023-10-09T03:14:02;7.80;;;4.90;;
57249;SDS011;43102;52.014;-0.680;2023-10-09T03:15:03;7.80;;;4.90;;
57249;SDS011;43102;52.014;-0.680;2023-10-09T03:16:02;7.80;;;4.90;;
57249;SDS011;43102;52.014;-0.680;2023-10-09T03:17:01;7.80;;;4.90;;
57249;SDS011;43102;52.014;-0.680;2023-10-09T03:18:02;7.80;;;4.90;;
57249;SDS011;43102;52.014;-0.680;2023-10-09T03:19:02;7.80;;;4.90;;
57249;SDS011;43102;52.014;-0.680;2023-10-09T03:20:12;7.80;;;4.90;;
57249;SDS011;43102;52.014;-0.680;2023-10-09T03:21:00;7.80;;;4.90;;
57249;SDS011;43102;52.014;-0.680;2023-10-09T03:22:01;7.80;;;4.90;;
57249;SDS011;43102;52.014;-0.680;2023-10-09T03:23:01;7.80;;;4.90;;
57249;SDS011;43102;52.014;-0.680;2023-10-09T03:24:04;7.80;;;4.90;;
57249;SDS011;43102;52.014;-0.680;2023-10-09T03:25:00;7.80;;;4.90;;
57249;SDS011;43102;52.014;-0.680;2023-10-09T03:26:11;7.80;;;4.90;;
57249;SDS011;43102;52.014;-0.680;2023-10-09T03:27:00;7.80;;;4.90;;
57249;SDS011;43102;52.014;-0.680;2023-10-09T03:28:00;7.80;;;4.90;;
57249;SDS011;43102;52.014;-0.680;2023-10-09T03:29:01;7.80;;;4.90;;
57249;SDS011;43102;52.014;-0.680;2023-10-09T03:30:05;7.80;;;4.90;;
57249;SDS011;43102;52.014;-0.680;2023-10-09T03:31:02;7.80;;;4.90;;
57249;SDS011;43102;52.014;-0.680;2023-10-09T03:32:00;7.80;;;4.90;;
57249;SDS011;43102;52.014;-0.680;2023-10-09T03:33:02;7.80;;;4.90;;
57249;SDS011;43102;52.014;-0.680;2023-10-09T03:34:02;7.80;;;4.90;;
57249;SDS011;43102;52.014;-0.680;2023-10-09T03:35:03;7.80;;;4.90;;
57249;SDS011;43102;52.014;-0.680;2023-10-09T03:36:00;7.80;;;4.90;;
57249;SDS011;43102;52.014;-0.680;2023-10-09T03:37:03;7.80;;;4.90;;
57249;SDS011;43102;52.014;-0.680;2023-10-09T03:38:09;7.80;;;4.90;;
57249;SDS011;43102;52.014;-0.680;2023-10-09T03:39:07;8.20;;;5.10;;
57249;SDS011;43102;52.014;-0.680;2023-10-09T03:40:01;8.20;;;5.10;;
57249;SDS011;43102;52.014;-0.680;2023-10-09T03:41:05;8.20;;;5.10;;
57249;SDS011;43102;52.014;-0.680;2023-10-09T03:42:04;8.20;;;5.10;;
57249;SDS011;43102;52.014;-0.680;2023-10-09T03:43:01;8.20;;;5.10;;
57249;SDS011;43102;52.014;-0.680;2023-10-09T03:44:00;8.20;;;5.10;;
57249;SDS011;43102;52.014;-0.680;2023-10-09T03:45:01;8.20;;;5.10;;
57249;SDS011;43102;52.014;-0.680;2023-10-09T03:46:03;8.20;;;5.10;;
57249;SDS011;43102;52.014;-0.680;2023-10-09T03:47:01;8.20;;;5.10;;
57249;SDS011;43102;52.014;-0.680;2023-10-09T03:48:04;8.20;;;5.10;;
57249;SDS011;43102;52.014;-0.680;2023-10-09T03:49:01;8.20;;;5.10;;
57249;SDS011;43102;52.014;-0.680;2023-10-09T03:50:12;8.20;;;5.10;;
57249;SDS011;43102;52.014;-0.680;2023-10-09T03:51:11;8.20;;;5.10;;
57249;SDS011;43102;52.014;-0.680;2023-10-09T03:52:02;8.20;;;5.10;;
57249;SDS011;43102;52.014;-0.680;2023-10-09T03:53:01;8.20;;;5.10;;
57249;SDS011;43102;52.014;-0.680;2023-10-09T03:54:06;8.20;;;5.10;;
57249;SDS011;43102;52.014;-0.680;2023-10-09T03:55:00;8.20;;;5.10;;
57249;SDS011;43102;52.014;-0.680;2023-10-09T03:56:00;8.20;;;5.10;;
57249;SDS011;43102;52.014;-0.680;2023-10-09T03:57:01;8.20;;;5.10;;
57249;SDS011;43102;52.014;-0.680;2023-10-09T03:58:01;8.20;;;5.10;;
57249;SDS011;43102;52.014;-0.680;2023-10-09T03:59:03;8.20;;;5.10;;
57249;SDS011;43102;52.014;-0.680;2023-10-09T04:00:03;8.20;;;5.10;;
57249;SDS011;43102;52.014;-0.680;2023-10-09T04:01:07;8.20;;;5.10;;
57249;SDS011;43102;52.014;-0.680;2023-10-09T04:02:04;8.20;;;5.10;;
57249;SDS011;43102;52.014;-0.680;2023-10-09T04:03:02;8.20;;;5.10;;
57249;SDS011;43102;52.014;-0.680;2023-10-09T04:04:01;8.20;;;5.10;;
57249;SDS011;43102;52.014;-0.680;2023-10-09T04:05:00;8.20;;;5.10;;
57249;SDS011;43102;52.014;-0.680;2023-10-09T04:06:00;8.20;;;5.10;;
57249;SDS011;43102;52.014;-0.680;2023-10-09T04:07:00;8.20;;;5.10;;
57249;SDS011;43102;52.014;-0.680;2023-10-09T04:08:01;8.20;;;5.10;;
57249;SDS011;43102;52.014;-0.680;2023-10-09T04:09:13;6.90;;;5.20;;
57249;SDS011;43102;52.014;-0.680;2023-10-09T04:10:11;6.90;;;5.20;;
57249;SDS011;43102;52.014;-0.680;2023-10-09T04:11:03;6.90;;;5.20;;
57249;SDS011;43102;52.014;-0.680;2023-10-09T04:12:11;6.90;;;5.20;;
57249;SDS011;43102;52.014;-0.680;2023-10-09T04:13:02;6.90;;;5.20;;
57249;SDS011;43102;52.014;-0.680;2023-10-09T04:14:10;6.90;;;5.20;;
57249;SDS011;43102;52.014;-0.680;2023-10-09T04:15:04;6.90;;;5.20;;
57249;SDS011;43102;52.014;-0.680;2023-10-09T04:16:10;6.90;;;5.20;;
57249;SDS011;43102;52.014;-0.680;2023-10-09T04:17:11;6.90;;;5.20;;
57249;SDS011;43102;52.014;-0.680;2023-10-09T04:18:01;6.90;;;5.20;;
57249;SDS011;43102;52.014;-0.680;2023-10-09T04:19:08;6.90;;;5.20;;
57249;SDS011;43102;52.014;-0.680;2023-10-09T04:20:11;6.90;;;5.20;;
57249;SDS011;43102;52.014;-0.680;2023-10-09T04:21:11;6.90;;;5.20;;
57249;SDS011;43102;52.014;-0.680;2023-10-09T04:22:06;6.90;;;5.20;;
57249;SDS011;43102;52.014;-0.680;2023-10-09T04:23:05;6.90;;;5.20;;
57249;SDS011;43102;52.014;-0.680;2023-10-09T04:24:11;6.90;;;5.20;;
57249;SDS011;43102;52.014;-0.680;2023-10-09T04:25:00;6.90;;;5.20;;
57249;SDS011;43102;52.014;-0.680;2023-10-09T04:26:10;6.90;;;5.20;;
57249;SDS011;43102;52.014;-0.680;2023-10-09T04:27:02;6.90;;;5.20;;
57249;SDS011;43102;52.014;-0.680;2023-10-09T04:28:11;6.90;;;5.20;;
57249;SDS011;43102;52.014;-0.680;2023-10-09T04:29:02;6.90;;;5.20;;
57249;SDS011;43102;52.014;-0.680;2023-10-09T04:30:00;6.90;;;5.20;;
57249;SDS011;43102;52.014;-0.680;2023-10-09T04:31:06;6.90;;;5.20;;
57249;SDS011;43102;52.014;-0.680;2023-10-09T04:32:00;6.90;;;5.20;;
57249;SDS011;43102;52.014;-0.680;2023-10-09T04:33:11;6.90;;;5.20;;
57249;SDS011;43102;52.014;-0.680;2023-10-09T04:34:11;6.90;;;5.20;;
57249;SDS011;43102;52.014;-0.680;2023-10-09T04:35:11;6.90;;;5.20;;
57249;SDS011;43102;52.014;-0.680;2023-10-09T04:36:12;6.90;;;5.20;;
57249;SDS011;43102;52.014;-0.680;2023-10-09T04:37:01;6.90;;;5.20;;
57249;SDS011;43102;52.014;-0.680;2023-10-09T04:38:06;6.90;;;5.20;;
57249;SDS011;43102;52.014;-0.680;2023-10-09T04:39:02;6.90;;;5.20;;
57249;SDS011;43102;52.014;-0.680;2023-10-09T04:40:11;9.10;;;5.70;;
57249;SDS011;43102;52.014;-0.680;2023-10-09T04:41:05;9.10;;;5.70;;
57249;SDS011;43102;52.014;-0.680;2023-10-09T04:42:12;9.10;;;5.70;;
57249;SDS011;43102;52.014;-0.680;2023-10-09T04:43:06;9.10;;;5.70;;
57249;SDS011;43102;52.014;-0.680;2023-10-09T04:44:11;9.10;;;5.70;;
57249;SDS011;43102;52.014;-0.680;2023-10-09T04:45:02;9.10;;;5.70;;
57249;SDS011;43102;52.014;-0.680;2023-10-09T04:46:11;9.10;;;5.70;;
57249;SDS011;43102;52.014;-0.680;2023-10-09T04:47:11;9.10;;;5.70;;
57249;SDS011;43102;52.014;-0.680;2023-10-09T04:48:06;9.10;;;5.70;;
57249;SDS011;43102;52.014;-0.680;2023-10-09T04:49:11;9.10;;;5.70;;
57249;SDS011;43102;52.014;-0.680;2023-10-09T04:50:00;9.10;;;5.70;;
57249;SDS011;43102;52.014;-0.680;2023-10-09T04:51:14;9.10;;;5.70;;
57249;SDS011;43102;52.014;-0.680;2023-10-09T04:52:07;9.10;;;5.70;;
57249;SDS011;43102;52.014;-0.680;2023-10-09T04:53:12;9.10;;;5.70;;
57249;SDS011;43102;52.014;-0.680;2023-10-09T04:54:11;9.10;;;5.70;;
57249;SDS011;43102;52.014;-0.680;2023-10-09T04:55:08;9.10;;;5.70;;
57249;SDS011;43102;52.014;-0.680;2023-10-09T04:56:04;9.10;;;5.70;;
57249;SDS011;43102;52.014;-0.680;2023-10-09T04:57:00;9.10;;;5.70;;
57249;SDS011;43102;52.014;-0.680;2023-10-09T04:58:09;9.10;;;5.70;;
57249;SDS011;43102;52.014;-0.680;2023-10-09T04:59:03;9.10;;;5.70;;
57249;SDS011;43102;52.014;-0.680;2023-10-09T05:00:04;9.10;;;5.70;;
57249;SDS011;43102;52.014;-0.680;2023-10-09T05:01:00;9.10;;;5.70;;
57249;SDS011;43102;52.014;-0.680;2023-10-09T05:02:05;9.10;;;5.70;;
57249;SDS011;43102;52.014;-0.680;2023-10-09T05:03:10;9.10;;;5.70;;
57249;SDS011;43102;52.014;-0.680;2023-10-09T05:04:04;9.10;;;5.70;;
57249;SDS011;43102;52.014;-0.680;2023-10-09T05:05:11;9.10;;;5.70;;
57249;SDS011;43102;52.014;-0.680;2023-10-09T05:06:12;9.10;;;5.70;;
57249;SDS011;43102;52.014;-0.680;2023-10-09T05:07:11;9.10;;;5.70;;
57249;SDS011;43102;52.014;-0.680;2023-10-09T05:08:12;9.10;;;5.70;;
57249;SDS011;43102;52.014;-0.680;2023-10-09T05:09:08;8.60;;;5.30;;
57249;SDS011;43102;52.014;-0.680;2023-10-09T05:10:10;8.60;;;5.30;;
57249;SDS011;43102;52.014;-0.680;2023-10-09T05:11:02;8.60;;;5.30;;
57249;SDS011;43102;52.014;-0.680;2023-10-09T05:12:11;8.60;;;5.30;;
57249;SDS011;43102;52.014;-0.680;2023-10-09T05:13:02;8.60;;;5.30;;
57249;SDS011;43102;52.014;-0.680;2023-10-09T05:14:11;8.60;;;5.30;;
57249;SDS011;43102;52.014;-0.680;2023-10-09T05:15:09;8.60;;;5.30;;
57249;SDS011;43102;52.014;-0.680;2023-10-09T05:16:02;8.60;;;5.30;;
57249;SDS011;43102;52.014;-0.680;2023-10-09T05:17:04;8.60;;;5.30;;
57249;SDS011;43102;52.014;-0.680;2023-10-09T05:18:09;8.60;;;5.30;;
57249;SDS011;43102;52.014;-0.680;2023-10-09T05:19:06;8.60;;;5.30;;
57249;SDS011;43102;52.014;-0.680;2023-10-09T05:20:11;8.60;;;5.30;;
57249;SDS011;43102;52.014;-0.680;2023-10-09T05:21:11;8.60;;;5.30;;
57249;SDS011;43102;52.014;-0.680;2023-10-09T05:22:09;8.60;;;5.30;;
57249;SDS011;43102;52.014;-0.680;2023-10-09T05:23:11;8.60;;;5.30;;
57249;SDS011;43102;52.014;-0.680;2023-10-09T05:24:11;8.60;;;5.30;;
57249;SDS011;43102;52.014;-0.680;2023-10-09T05:25:00;8.60;;;5.30;;
57249;SDS011;43102;52.014;-0.680;2023-10-09T05:26:11;8.60;;;5.30;;
57249;SDS011;43102;52.014;-0.680;2023-10-09T05:27:11;8.60;;;5.30;;
57249;SDS011;43102;52.014;-0.680;2023-10-09T05:28:11;8.60;;;5.30;;
57249;SDS011;43102;52.014;-0.680;2023-10-09T05:29:12;8.60;;;5.30;;
57249;SDS011;43102;52.014;-0.680;2023-10-09T05:30:11;8.60;;;5.30;;
57249;SDS011;43102;52.014;-0.680;2023-10-09T05:31:08;8.60;;;5.30;;
57249;SDS011;43102;52.014;-0.680;2023-10-09T05:32:11;8.60;;;5.30;;
57249;SDS011;43102;52.014;-0.680;2023-10-09T05:33:11;8.60;;;5.30;;
57249;SDS011;43102;52.014;-0.680;2023-10-09T05:34:01;8.60;;;5.30;;
57249;SDS011;43102;52.014;-0.680;2023-10-09T05:35:01;8.60;;;5.30;;
57249;SDS011;43102;52.014;-0.680;2023-10-09T05:36:12;8.60;;;5.30;;
57249;SDS011;43102;52.014;-0.680;2023-10-09T05:37:12;8.60;;;5.30;;
57249;SDS011;43102;52.014;-0.680;2023-10-09T05:38:04;8.60;;;5.30;;
57249;SDS011;43102;52.014;-0.680;2023-10-09T05:39:11;8.60;;;6.00;;
57249;SDS011;43102;52.014;-0.680;2023-10-09T05:40:02;8.60;;;6.00;;
57249;SDS011;43102;52.014;-0.680;2023-10-09T05:41:12;8.60;;;6.00;;
57249;SDS011;43102;52.014;-0.680;2023-10-09T05:42:09;8.60;;;6.00;;
57249;SDS011;43102;52.014;-0.680;2023-10-09T05:43:03;8.60;;;6.00;;
57249;SDS011;43102;52.014;-0.680;2023-10-09T05:44:11;8.60;;;6.00;;
57249;SDS011;43102;52.014;-0.680;2023-10-09T05:45:12;8.60;;;6.00;;
57249;SDS011;43102;52.014;-0.680;2023-10-09T05:46:09;8.60;;;6.00;;
57249;SDS011;43102;52.014;-0.680;2023-10-09T05:47:11;8.60;;;6.00;;
57249;SDS011;43102;52.014;-0.680;2023-10-09T05:48:11;8.60;;;6.00;;
57249;SDS011;43102;52.014;-0.680;2023-10-09T05:49:09;8.60;;;6.00;;
57249;SDS011;43102;52.014;-0.680;2023-10-09T05:50:11;8.60;;;6.00;;
57249;SDS011;43102;52.014;-0.680;2023-10-09T05:51:11;8.60;;;6.00;;
57249;SDS011;43102;52.014;-0.680;2023-10-09T05:52:13;8.60;;;6.00;;
57249;SDS011;43102;52.014;-0.680;2023-10-09T05:53:01;8.60;;;6.00;;
57249;SDS011;43102;52.014;-0.680;2023-10-09T05:54:11;8.60;;;6.00;;
57249;SDS011;43102;52.014;-0.680;2023-10-09T05:55:11;8.60;;;6.00;;
57249;SDS011;43102;52.014;-0.680;2023-10-09T05:56:12;8.60;;;6.00;;